sensor_id;sensor_type;location;lat;lon;timestamp;P1;durP1;ratioP1;P2;durP2;ratioP2
42868;SDS011;28516;47.276;-1.512;2023-02-15T15:58:15;2.80;;;2.22;;
42868;SDS011;28516;47.276;-1.512;2023-02-15T15:59:19;5.82;;;2.63;;
42868;SDS011;28516;47.276;-1.512;2023-02-15T16:00:24;3.92;;;2.33;;
42868;SDS011;28516;47.276;-1.512;2023-02-15T16:01:28;3.17;;;2.50;;
42868;SDS011;28516;47.276;-1.512;2023-02-15T16:02:29;5.38;;;2.38;;
42868;SDS011;28516;47.276;-1.512;2023-02-15T16:03:29;4.90;;;2.53;;
42868;SDS011;28516;47.276;-1.512;2023-02-15T16:04:31;4.60;;;2.30;;
42868;SDS011;28516;47.276;-1.512;2023-02-15T16:05:38;3.28;;;2.10;;
42868;SDS011;28516;47.276;-1.512;2023-02-15T16:06:39;3.35;;;2.30;;
42868;SDS011;28516;47.276;-1.512;2023-02-15T16:07:40;2.97;;;2.00;;
42868;SDS011;28516;47.276;-1.512;2023-02-15T16:08:41;3.78;;;2.22;;
42868;SDS011;28516;47.276;-1.512;2023-02-15T16:09:55;3.40;;;1.77;;
42868;SDS011;28516;47.276;-1.512;2023-02-15T16:10:56;4.78;;;2.35;;
42868;SDS011;28516;47.276;-1.512;2023-02-15T16:11:58;3.80;;;1.98;;
42868;SDS011;28516;47.276;-1.512;2023-02-15T16:13:02;2.88;;;1.90;;
42868;SDS011;28516;47.276;-1.512;2023-02-15T16:14:11;3.28;;;2.30;;
42868;SDS011;28516;47.276;-1.512;2023-02-15T16:15:14;4.57;;;2.05;;
42868;SDS011;28516;47.276;-1.512;2023-02-15T16:16:19;1.98;;;1.67;;
42868;SDS011;28516;47.276;-1.512;2023-02-15T16:17:25;5.50;;;2.20;;
42868;SDS011;28516;47.276;-1.512;2023-02-15T16:18:26;2.17;;;1.88;;
42868;SDS011;28516;47.276;-1.512;2023-02-15T16:19:28;2.13;;;1.65;;
42868;SDS011;28516;47.276;-1.512;2023-02-15T16:20:33;3.13;;;1.98;;
42868;SDS011;28516;47.276;-1.512;2023-02-15T16:21:36;2.13;;;1.63;;
42868;SDS011;28516;47.276;-1.512;2023-02-15T16:22:37;2.38;;;1.65;;
42868;SDS011;28516;47.276;-1.512;2023-02-15T16:27:39;1.70;;;1.43;;
42868;SDS011;28516;47.276;-1.512;2023-02-15T16:29:00;1.75;;;1.65;;
42868;SDS011;28516;47.276;-1.512;2023-02-15T16:31:21;1.95;;;1.52;;
42868;SDS011;28516;47.276;-1.512;2023-02-15T16:32:25;1.65;;;1.40;;
42868;SDS011;28516;47.276;-1.512;2023-02-15T16:33:33;2.03;;;1.77;;
42868;SDS011;28516;47.276;-1.512;2023-02-15T16:34:36;2.22;;;1.40;;
42868;SDS011;28516;47.276;-1.512;2023-02-15T16:35:40;3.05;;;1.70;;
42868;SDS011;28516;47.276;-1.512;2023-02-15T16:36:41;2.15;;;1.65;;
42868;SDS011;28516;47.276;-1.512;2023-02-15T16:37:42;2.25;;;1.63;;
42868;SDS011;28516;47.276;-1.512;2023-02-15T16:39:44;1.73;;;1.40;;
42868;SDS011;28516;47.276;-1.512;2023-02-15T16:41:46;2.15;;;1.52;;
42868;SDS011;28516;47.276;-1.512;2023-02-15T16:42:47;2.17;;;1.77;;
42868;SDS011;28516;47.276;-1.512;2023-02-15T16:43:49;2.80;;;1.70;;
42868;SDS011;28516;47.276;-1.512;2023-02-15T16:45:07;3.30;;;1.60;;
42868;SDS011;28516;47.276;-1.512;2023-02-15T16:46:12;1.83;;;1.20;;
42868;SDS011;28516;47.276;-1.512;2023-02-15T16:47:16;1.58;;;1.40;;
42868;SDS011;28516;47.276;-1.512;2023-02-15T16:48:20;2.00;;;1.52;;
42868;SDS011;28516;47.276;-1.512;2023-02-15T16:49:22;1.48;;;1.35;;
42868;SDS011;28516;47.276;-1.512;2023-02-15T16:50:33;1.90;;;1.50;;
42868;SDS011;28516;47.276;-1.512;2023-02-15T16:51:34;1.55;;;1.20;;
42868;SDS011;28516;47.276;-1.512;2023-02-15T16:52:35;2.55;;;1.42;;
42868;SDS011;28516;47.276;-1.512;2023-02-15T16:53:36;1.30;;;1.20;;
42868;SDS011;28516;47.276;-1.512;2023-02-15T16:54:37;1.90;;;1.30;;
42868;SDS011;28516;47.276;-1.512;2023-02-15T16:55:41;1.77;;;1.30;;
42868;SDS011;28516;47.276;-1.512;2023-02-15T16:56:42;1.20;;;1.10;;
42868;SDS011;28516;47.276;-1.512;2023-02-15T16:57:44;1.55;;;1.38;;
42868;SDS011;28516;47.276;-1.512;2023-02-15T16:58:45;1.55;;;1.25;;
42868;SDS011;28516;47.276;-1.512;2023-02-15T16:59:50;1.30;;;1.20;;
42868;SDS011;28516;47.276;-1.512;2023-02-15T17:00:52;1.60;;;1.38;;
42868;SDS011;28516;47.276;-1.512;2023-02-15T17:02:04;1.02;;;0.95;;
42868;SDS011;28516;47.276;-1.512;2023-02-15T17:03:12;1.45;;;1.35;;
42868;SDS011;28516;47.276;-1.512;2023-02-15T17:05:21;1.80;;;1.42;;
42868;SDS011;28516;47.276;-1.512;2023-02-15T17:06:23;1.88;;;1.40;;
42868;SDS011;28516;47.276;-1.512;2023-02-15T17:07:26;1.52;;;1.35;;
42868;SDS011;28516;47.276;-1.512;2023-02-15T17:09:30;1.40;;;1.30;;
42868;SDS011;28516;47.276;-1.512;2023-02-15T17:10:32;1.45;;;1.33;;
42868;SDS011;28516;47.276;-1.512;2023-02-15T17:11:40;1.52;;;1.30;;
42868;SDS011;28516;47.276;-1.512;2023-02-15T17:15:04;1.35;;;1.25;;
42868;SDS011;28516;47.276;-1.512;2023-02-15T17:17:06;1.38;;;1.20;;
42868;SDS011;28516;47.276;-1.512;2023-02-15T17:19:21;1.40;;;1.10;;
42868;SDS011;28516;47.276;-1.512;2023-02-15T17:20:23;1.90;;;1.42;;
42868;SDS011;28516;47.276;-1.512;2023-02-15T17:21:26;1.20;;;1.10;;
42868;SDS011;28516;47.276;-1.512;2023-02-15T17:22:28;1.38;;;1.27;;
42868;SDS011;28516;47.276;-1.512;2023-02-15T17:24:33;1.45;;;1.27;;
42868;SDS011;28516;47.276;-1.512;2023-02-15T17:25:37;1.15;;;1.05;;
42868;SDS011;28516;47.276;-1.512;2023-02-15T17:26:38;1.50;;;1.23;;
42868;SDS011;28516;47.276;-1.512;2023-02-15T17:27:39;1.42;;;1.27;;
42868;SDS011;28516;47.276;-1.512;2023-02-15T17:28:44;1.88;;;1.48;;
42868;SDS011;28516;47.276;-1.512;2023-02-15T17:29:46;1.35;;;1.25;;
42868;SDS011;28516;47.276;-1.512;2023-02-15T17:30:49;1.65;;;1.38;;
42868;SDS011;28516;47.276;-1.512;2023-02-15T17:31:50;1.30;;;1.20;;
42868;SDS011;28516;47.276;-1.512;2023-02-15T17:32:55;1.33;;;1.23;;
42868;SDS011;28516;47.276;-1.512;2023-02-15T17:33:57;1.45;;;1.10;;
42868;SDS011;28516;47.276;-1.512;2023-02-15T17:35:00;1.60;;;1.10;;
42868;SDS011;28516;47.276;-1.512;2023-02-15T17:37:41;1.30;;;1.10;;
42868;SDS011;28516;47.276;-1.512;2023-02-15T17:39:59;1.30;;;1.20;;
42868;SDS011;28516;47.276;-1.512;2023-02-15T17:41:00;1.52;;;1.42;;
42868;SDS011;28516;47.276;-1.512;2023-02-15T17:42:01;1.38;;;1.20;;
42868;SDS011;28516;47.276;-1.512;2023-02-15T17:43:02;1.17;;;1.08;;
42868;SDS011;28516;47.276;-1.512;2023-02-15T17:44:03;1.20;;;1.10;;
42868;SDS011;28516;47.276;-1.512;2023-02-15T17:45:04;1.23;;;1.10;;
42868;SDS011;28516;47.276;-1.512;2023-02-15T17:46:05;1.20;;;1.10;;
42868;SDS011;28516;47.276;-1.512;2023-02-15T17:47:05;2.28;;;1.30;;
42868;SDS011;28516;47.276;-1.512;2023-02-15T17:48:06;1.10;;;1.00;;
42868;SDS011;28516;47.276;-1.512;2023-02-15T17:49:18;1.25;;;0.95;;
42868;SDS011;28516;47.276;-1.512;2023-02-15T17:50:21;2.28;;;1.30;;
42868;SDS011;28516;47.276;-1.512;2023-02-15T17:51:22;1.60;;;1.38;;
42868;SDS011;28516;47.276;-1.512;2023-02-15T17:52:23;1.42;;;1.13;;
42868;SDS011;28516;47.276;-1.512;2023-02-15T17:53:24;1.33;;;1.13;;
42868;SDS011;28516;47.276;-1.512;2023-02-15T17:54:25;1.30;;;1.20;;
42868;SDS011;28516;47.276;-1.512;2023-02-15T17:55:44;1.30;;;1.20;;
42868;SDS011;28516;47.276;-1.512;2023-02-15T17:56:45;1.42;;;1.33;;
42868;SDS011;28516;47.276;-1.512;2023-02-15T17:57:46;1.52;;;1.42;;
42868;SDS011;28516;47.276;-1.512;2023-02-15T17:58:47;1.73;;;1.58;;
42868;SDS011;28516;47.276;-1.512;2023-02-15T17:59:47;1.40;;;1.30;;
42868;SDS011;28516;47.276;-1.512;2023-02-15T18:01:09;1.55;;;1.45;;
42868;SDS011;28516;47.276;-1.512;2023-02-15T18:02:30;1.50;;;1.33;;
42868;SDS011;28516;47.276;-1.512;2023-02-15T18:03:50;1.40;;;1.30;;
42868;SDS011;28516;47.276;-1.512;2023-02-15T18:05:13;1.98;;;1.60;;
42868;SDS011;28516;47.276;-1.512;2023-02-15T18:06:33;1.63;;;1.50;;
42868;SDS011;28516;47.276;-1.512;2023-02-15T18:07:53;1.80;;;1.50;;
42868;SDS011;28516;47.276;-1.512;2023-02-15T18:09:13;1.52;;;1.40;;
42868;SDS011;28516;47.276;-1.512;2023-02-15T18:10:32;1.75;;;1.60;;
42868;SDS011;28516;47.276;-1.512;2023-02-15T18:11:52;1.30;;;1.20;;
42868;SDS011;28516;47.276;-1.512;2023-02-15T18:12:52;1.60;;;1.50;;
42868;SDS011;28516;47.276;-1.512;2023-02-15T18:13:53;1.55;;;1.35;;
42868;SDS011;28516;47.276;-1.512;2023-02-15T18:14:56;1.50;;;1.40;;
42868;SDS011;28516;47.276;-1.512;2023-02-15T18:15:57;1.50;;;1.40;;
42868;SDS011;28516;47.276;-1.512;2023-02-15T18:16:58;1.33;;;1.23;;
42868;SDS011;28516;47.276;-1.512;2023-02-15T18:17:58;1.35;;;1.25;;
42868;SDS011;28516;47.276;-1.512;2023-02-15T18:18:59;1.50;;;1.40;;
42868;SDS011;28516;47.276;-1.512;2023-02-15T18:20:02;1.60;;;1.50;;
42868;SDS011;28516;47.276;-1.512;2023-02-15T18:21:05;1.98;;;1.45;;
42868;SDS011;28516;47.276;-1.512;2023-02-15T18:22:11;1.48;;;1.38;;
42868;SDS011;28516;47.276;-1.512;2023-02-15T18:23:15;1.65;;;1.55;;
42868;SDS011;28516;47.276;-1.512;2023-02-15T18:24:17;1.70;;;1.60;;
42868;SDS011;28516;47.276;-1.512;2023-02-15T18:25:19;1.58;;;1.48;;
42868;SDS011;28516;47.276;-1.512;2023-02-15T18:26:21;1.77;;;1.67;;
42868;SDS011;28516;47.276;-1.512;2023-02-15T18:27:22;1.80;;;1.50;;
42868;SDS011;28516;47.276;-1.512;2023-02-15T18:28:23;1.52;;;1.42;;
42868;SDS011;28516;47.276;-1.512;2023-02-15T18:29:23;1.40;;;1.30;;
42868;SDS011;28516;47.276;-1.512;2023-02-15T18:30:24;1.70;;;1.60;;
42868;SDS011;28516;47.276;-1.512;2023-02-15T18:31:26;1.67;;;1.58;;
42868;SDS011;28516;47.276;-1.512;2023-02-15T18:32:33;1.60;;;1.50;;
42868;SDS011;28516;47.276;-1.512;2023-02-15T18:33:39;1.40;;;1.25;;
42868;SDS011;28516;47.276;-1.512;2023-02-15T18:34:40;1.90;;;1.52;;
42868;SDS011;28516;47.276;-1.512;2023-02-15T18:35:42;1.90;;;1.65;;
42868;SDS011;28516;47.276;-1.512;2023-02-15T18:36:44;1.67;;;1.50;;
42868;SDS011;28516;47.276;-1.512;2023-02-15T18:37:45;2.25;;;1.50;;
42868;SDS011;28516;47.276;-1.512;2023-02-15T18:38:46;1.70;;;1.60;;
42868;SDS011;28516;47.276;-1.512;2023-02-15T18:39:47;2.22;;;1.70;;
42868;SDS011;28516;47.276;-1.512;2023-02-15T18:40:48;1.50;;;1.40;;
42868;SDS011;28516;47.276;-1.512;2023-02-15T18:41:50;1.67;;;1.58;;
42868;SDS011;28516;47.276;-1.512;2023-02-15T18:42:50;1.70;;;1.60;;
42868;SDS011;28516;47.276;-1.512;2023-02-15T18:43:51;1.55;;;1.30;;
42868;SDS011;28516;47.276;-1.512;2023-02-15T18:44:57;1.60;;;1.50;;
42868;SDS011;28516;47.276;-1.512;2023-02-15T18:45:58;1.92;;;1.73;;
42868;SDS011;28516;47.276;-1.512;2023-02-15T18:46:59;1.85;;;1.67;;
42868;SDS011;28516;47.276;-1.512;2023-02-15T18:48:00;1.80;;;1.40;;
42868;SDS011;28516;47.276;-1.512;2023-02-15T18:49:00;1.40;;;1.30;;
42868;SDS011;28516;47.276;-1.512;2023-02-15T18:50:01;1.60;;;1.50;;
42868;SDS011;28516;47.276;-1.512;2023-02-15T18:51:02;1.60;;;1.50;;
42868;SDS011;28516;47.276;-1.512;2023-02-15T18:52:03;1.85;;;1.48;;
42868;SDS011;28516;47.276;-1.512;2023-02-15T18:53:04;1.60;;;1.50;;
42868;SDS011;28516;47.276;-1.512;2023-02-15T18:54:11;1.58;;;1.35;;
42868;SDS011;28516;47.276;-1.512;2023-02-15T18:55:21;1.63;;;1.52;;
42868;SDS011;28516;47.276;-1.512;2023-02-15T18:56:22;1.90;;;1.70;;
42868;SDS011;28516;47.276;-1.512;2023-02-15T18:57:22;2.10;;;1.67;;
42868;SDS011;28516;47.276;-1.512;2023-02-15T18:58:23;2.15;;;1.77;;
42868;SDS011;28516;47.276;-1.512;2023-02-15T18:59:25;1.70;;;1.60;;
42868;SDS011;28516;47.276;-1.512;2023-02-15T19:00:30;2.22;;;1.60;;
42868;SDS011;28516;47.276;-1.512;2023-02-15T19:01:34;2.08;;;1.73;;
42868;SDS011;28516;47.276;-1.512;2023-02-15T19:02:34;1.60;;;1.50;;
42868;SDS011;28516;47.276;-1.512;2023-02-15T19:03:35;1.50;;;1.40;;
42868;SDS011;28516;47.276;-1.512;2023-02-15T19:04:35;1.60;;;1.50;;
42868;SDS011;28516;47.276;-1.512;2023-02-15T19:05:36;1.80;;;1.52;;
42868;SDS011;28516;47.276;-1.512;2023-02-15T19:06:37;1.63;;;1.52;;
42868;SDS011;28516;47.276;-1.512;2023-02-15T19:07:39;1.60;;;1.50;;
42868;SDS011;28516;47.276;-1.512;2023-02-15T19:08:43;2.00;;;1.77;;
42868;SDS011;28516;47.276;-1.512;2023-02-15T19:09:45;1.65;;;1.55;;
42868;SDS011;28516;47.276;-1.512;2023-02-15T19:10:47;1.73;;;1.63;;
42868;SDS011;28516;47.276;-1.512;2023-02-15T19:11:49;1.70;;;1.52;;
42868;SDS011;28516;47.276;-1.512;2023-02-15T19:12:51;1.65;;;1.55;;
42868;SDS011;28516;47.276;-1.512;2023-02-15T19:13:52;1.48;;;1.38;;
42868;SDS011;28516;47.276;-1.512;2023-02-15T19:14:53;1.80;;;1.55;;
42868;SDS011;28516;47.276;-1.512;2023-02-15T19:15:55;1.95;;;1.80;;
42868;SDS011;28516;47.276;-1.512;2023-02-15T19:16:56;1.83;;;1.70;;
42868;SDS011;28516;47.276;-1.512;2023-02-15T19:17:58;2.08;;;1.88;;
42868;SDS011;28516;47.276;-1.512;2023-02-15T19:18:59;1.95;;;1.80;;
42868;SDS011;28516;47.276;-1.512;2023-02-15T19:19:59;1.60;;;1.50;;
42868;SDS011;28516;47.276;-1.512;2023-02-15T19:21:00;1.60;;;1.50;;
42868;SDS011;28516;47.276;-1.512;2023-02-15T19:22:01;1.83;;;1.73;;
42868;SDS011;28516;47.276;-1.512;2023-02-15T19:23:02;1.70;;;1.60;;
42868;SDS011;28516;47.276;-1.512;2023-02-15T19:24:03;1.73;;;1.50;;
42868;SDS011;28516;47.276;-1.512;2023-02-15T19:25:07;1.80;;;1.60;;
42868;SDS011;28516;47.276;-1.512;2023-02-15T19:26:08;2.25;;;1.70;;
42868;SDS011;28516;47.276;-1.512;2023-02-15T19:28:36;1.77;;;1.67;;
42868;SDS011;28516;47.276;-1.512;2023-02-15T19:29:37;1.83;;;1.60;;
42868;SDS011;28516;47.276;-1.512;2023-02-15T19:30:37;1.73;;;1.48;;
42868;SDS011;28516;47.276;-1.512;2023-02-15T19:31:38;2.30;;;2.05;;
42868;SDS011;28516;47.276;-1.512;2023-02-15T19:32:39;1.75;;;1.65;;
42868;SDS011;28516;47.276;-1.512;2023-02-15T19:33:39;2.03;;;1.55;;
42868;SDS011;28516;47.276;-1.512;2023-02-15T19:34:40;1.95;;;1.77;;
42868;SDS011;28516;47.276;-1.512;2023-02-15T19:35:41;2.10;;;1.90;;
42868;SDS011;28516;47.276;-1.512;2023-02-15T19:36:43;1.80;;;1.70;;
42868;SDS011;28516;47.276;-1.512;2023-02-15T19:37:45;2.33;;;1.88;;
42868;SDS011;28516;47.276;-1.512;2023-02-15T19:38:47;2.13;;;1.92;;
42868;SDS011;28516;47.276;-1.512;2023-02-15T19:39:50;2.38;;;1.90;;
42868;SDS011;28516;47.276;-1.512;2023-02-15T19:40:51;2.03;;;1.63;;
42868;SDS011;28516;47.276;-1.512;2023-02-15T19:41:52;2.55;;;1.90;;
42868;SDS011;28516;47.276;-1.512;2023-02-15T19:42:53;1.80;;;1.70;;
42868;SDS011;28516;47.276;-1.512;2023-02-15T19:43:54;1.83;;;1.65;;
42868;SDS011;28516;47.276;-1.512;2023-02-15T19:44:56;2.85;;;1.80;;
42868;SDS011;28516;47.276;-1.512;2023-02-15T19:45:56;2.03;;;1.73;;
42868;SDS011;28516;47.276;-1.512;2023-02-15T19:46:57;2.35;;;2.15;;
42868;SDS011;28516;47.276;-1.512;2023-02-15T19:48:01;2.40;;;2.20;;
42868;SDS011;28516;47.276;-1.512;2023-02-15T19:49:02;1.75;;;1.65;;
42868;SDS011;28516;47.276;-1.512;2023-02-15T19:50:02;1.83;;;1.70;;
42868;SDS011;28516;47.276;-1.512;2023-02-15T19:51:04;1.85;;;1.63;;
42868;SDS011;28516;47.276;-1.512;2023-02-15T19:52:05;1.85;;;1.75;;
42868;SDS011;28516;47.276;-1.512;2023-02-15T19:55:24;1.83;;;1.73;;
42868;SDS011;28516;47.276;-1.512;2023-02-15T19:56:25;2.15;;;1.98;;
42868;SDS011;28516;47.276;-1.512;2023-02-15T19:57:26;2.15;;;1.98;;
42868;SDS011;28516;47.276;-1.512;2023-02-15T19:58:28;2.13;;;1.90;;
42868;SDS011;28516;47.276;-1.512;2023-02-15T19:59:30;2.10;;;1.90;;
42868;SDS011;28516;47.276;-1.512;2023-02-15T20:00:32;2.20;;;2.00;;
42868;SDS011;28516;47.276;-1.512;2023-02-15T20:01:33;2.58;;;1.90;;
42868;SDS011;28516;47.276;-1.512;2023-02-15T20:02:33;1.85;;;1.75;;
42868;SDS011;28516;47.276;-1.512;2023-02-15T20:03:34;2.22;;;1.70;;
42868;SDS011;28516;47.276;-1.512;2023-02-15T20:04:35;1.90;;;1.80;;
42868;SDS011;28516;47.276;-1.512;2023-02-15T20:05:35;2.20;;;2.00;;
42868;SDS011;28516;47.276;-1.512;2023-02-15T20:06:39;2.13;;;1.92;;
42868;SDS011;28516;47.276;-1.512;2023-02-15T20:07:41;2.20;;;2.00;;
42868;SDS011;28516;47.276;-1.512;2023-02-15T20:08:42;1.80;;;1.70;;
42868;SDS011;28516;47.276;-1.512;2023-02-15T20:09:43;1.90;;;1.80;;
42868;SDS011;28516;47.276;-1.512;2023-02-15T20:10:44;2.17;;;1.98;;
42868;SDS011;28516;47.276;-1.512;2023-02-15T20:11:46;2.47;;;2.00;;
42868;SDS011;28516;47.276;-1.512;2023-02-15T20:12:46;2.13;;;1.90;;
42868;SDS011;28516;47.276;-1.512;2023-02-15T20:13:47;2.60;;;1.90;;
42868;SDS011;28516;47.276;-1.512;2023-02-15T20:14:48;1.73;;;1.63;;
42868;SDS011;28516;47.276;-1.512;2023-02-15T20:15:49;2.17;;;2.00;;
42868;SDS011;28516;47.276;-1.512;2023-02-15T20:16:50;2.53;;;2.13;;
42868;SDS011;28516;47.276;-1.512;2023-02-15T20:17:51;1.90;;;1.70;;
42868;SDS011;28516;47.276;-1.512;2023-02-15T20:18:52;2.05;;;1.80;;
42868;SDS011;28516;47.276;-1.512;2023-02-15T20:19:53;2.13;;;1.88;;
42868;SDS011;28516;47.276;-1.512;2023-02-15T20:20:54;2.40;;;2.20;;
42868;SDS011;28516;47.276;-1.512;2023-02-15T20:21:55;2.08;;;1.85;;
42868;SDS011;28516;47.276;-1.512;2023-02-15T20:22:56;2.65;;;2.10;;
42868;SDS011;28516;47.276;-1.512;2023-02-15T20:23:57;2.10;;;1.90;;
42868;SDS011;28516;47.276;-1.512;2023-02-15T20:24:59;2.00;;;1.70;;
42868;SDS011;28516;47.276;-1.512;2023-02-15T20:26:01;1.98;;;1.77;;
42868;SDS011;28516;47.276;-1.512;2023-02-15T20:27:13;2.20;;;2.03;;
42868;SDS011;28516;47.276;-1.512;2023-02-15T20:28:16;2.45;;;2.00;;
42868;SDS011;28516;47.276;-1.512;2023-02-15T20:29:17;2.72;;;1.98;;
42868;SDS011;28516;47.276;-1.512;2023-02-15T20:30:22;2.08;;;1.88;;
42868;SDS011;28516;47.276;-1.512;2023-02-15T20:31:23;2.05;;;1.85;;
42868;SDS011;28516;47.276;-1.512;2023-02-15T20:32:25;2.08;;;1.67;;
42868;SDS011;28516;47.276;-1.512;2023-02-15T20:33:26;1.73;;;1.63;;
42868;SDS011;28516;47.276;-1.512;2023-02-15T20:34:26;2.17;;;1.98;;
42868;SDS011;28516;47.276;-1.512;2023-02-15T20:35:27;3.03;;;2.13;;
42868;SDS011;28516;47.276;-1.512;2023-02-15T20:36:28;2.95;;;2.40;;
42868;SDS011;28516;47.276;-1.512;2023-02-15T20:37:28;2.78;;;2.50;;
42868;SDS011;28516;47.276;-1.512;2023-02-15T20:38:30;2.80;;;2.53;;
42868;SDS011;28516;47.276;-1.512;2023-02-15T20:39:32;3.60;;;2.88;;
42868;SDS011;28516;47.276;-1.512;2023-02-15T20:40:34;3.00;;;2.75;;
42868;SDS011;28516;47.276;-1.512;2023-02-15T20:41:35;3.10;;;2.80;;
42868;SDS011;28516;47.276;-1.512;2023-02-15T20:42:36;3.45;;;2.90;;
42868;SDS011;28516;47.276;-1.512;2023-02-15T20:43:38;3.20;;;2.90;;
42868;SDS011;28516;47.276;-1.512;2023-02-15T20:44:38;3.42;;;2.95;;
42868;SDS011;28516;47.276;-1.512;2023-02-15T20:45:40;3.00;;;2.63;;
42868;SDS011;28516;47.276;-1.512;2023-02-15T20:46:41;3.03;;;2.65;;
42868;SDS011;28516;47.276;-1.512;2023-02-15T20:47:41;3.30;;;2.85;;
42868;SDS011;28516;47.276;-1.512;2023-02-15T20:48:47;2.70;;;2.50;;
42868;SDS011;28516;47.276;-1.512;2023-02-15T20:49:48;3.13;;;2.78;;
42868;SDS011;28516;47.276;-1.512;2023-02-15T20:50:49;2.75;;;2.55;;
42868;SDS011;28516;47.276;-1.512;2023-02-15T20:51:52;3.17;;;2.78;;
42868;SDS011;28516;47.276;-1.512;2023-02-15T20:52:54;2.35;;;2.15;;
42868;SDS011;28516;47.276;-1.512;2023-02-15T20:53:55;3.17;;;2.67;;
42868;SDS011;28516;47.276;-1.512;2023-02-15T20:54:56;2.90;;;2.60;;
42868;SDS011;28516;47.276;-1.512;2023-02-15T20:55:56;3.50;;;2.67;;
42868;SDS011;28516;47.276;-1.512;2023-02-15T20:56:57;2.60;;;2.40;;
42868;SDS011;28516;47.276;-1.512;2023-02-15T20:57:58;2.88;;;2.40;;
42868;SDS011;28516;47.276;-1.512;2023-02-15T20:58:59;2.20;;;2.00;;
42868;SDS011;28516;47.276;-1.512;2023-02-15T20:59:59;3.30;;;2.47;;
42868;SDS011;28516;47.276;-1.512;2023-02-15T21:01:00;2.30;;;2.10;;
42868;SDS011;28516;47.276;-1.512;2023-02-15T21:03:11;3.20;;;2.53;;
42868;SDS011;28516;47.276;-1.512;2023-02-15T21:04:15;2.42;;;2.22;;
42868;SDS011;28516;47.276;-1.512;2023-02-15T21:05:17;2.75;;;2.50;;
42868;SDS011;28516;47.276;-1.512;2023-02-15T21:06:18;2.42;;;2.20;;
42868;SDS011;28516;47.276;-1.512;2023-02-15T21:07:19;2.70;;;2.28;;
42868;SDS011;28516;47.276;-1.512;2023-02-15T21:08:21;2.65;;;2.20;;
42868;SDS011;28516;47.276;-1.512;2023-02-15T21:09:22;3.05;;;2.38;;
42868;SDS011;28516;47.276;-1.512;2023-02-15T21:10:24;2.38;;;2.17;;
42868;SDS011;28516;47.276;-1.512;2023-02-15T21:11:25;2.72;;;2.35;;
42868;SDS011;28516;47.276;-1.512;2023-02-15T21:12:26;3.10;;;2.53;;
42868;SDS011;28516;47.276;-1.512;2023-02-15T21:13:31;2.70;;;2.33;;
42868;SDS011;28516;47.276;-1.512;2023-02-15T21:14:32;2.47;;;2.22;;
42868;SDS011;28516;47.276;-1.512;2023-02-15T21:15:34;2.55;;;2.35;;
42868;SDS011;28516;47.276;-1.512;2023-02-15T21:16:35;2.90;;;2.60;;
42868;SDS011;28516;47.276;-1.512;2023-02-15T21:17:36;2.33;;;2.13;;
42868;SDS011;28516;47.276;-1.512;2023-02-15T21:18:37;2.95;;;2.58;;
42868;SDS011;28516;47.276;-1.512;2023-02-15T21:19:40;2.60;;;2.35;;
42868;SDS011;28516;47.276;-1.512;2023-02-15T21:20:43;2.67;;;2.47;;
42868;SDS011;28516;47.276;-1.512;2023-02-15T21:21:44;2.83;;;2.58;;
42868;SDS011;28516;47.276;-1.512;2023-02-15T21:22:45;2.88;;;2.55;;
42868;SDS011;28516;47.276;-1.512;2023-02-15T21:23:47;2.53;;;2.33;;
42868;SDS011;28516;47.276;-1.512;2023-02-15T21:24:48;2.92;;;2.50;;
42868;SDS011;28516;47.276;-1.512;2023-02-15T21:25:50;3.20;;;2.67;;
42868;SDS011;28516;47.276;-1.512;2023-02-15T21:26:51;3.10;;;2.80;;
42868;SDS011;28516;47.276;-1.512;2023-02-15T21:27:52;3.30;;;2.72;;
42868;SDS011;28516;47.276;-1.512;2023-02-15T21:28:53;3.33;;;2.67;;
42868;SDS011;28516;47.276;-1.512;2023-02-15T21:29:54;3.00;;;2.70;;
42868;SDS011;28516;47.276;-1.512;2023-02-15T21:30:55;3.70;;;2.95;;
42868;SDS011;28516;47.276;-1.512;2023-02-15T21:31:59;3.70;;;3.10;;
42868;SDS011;28516;47.276;-1.512;2023-02-15T21:33:01;3.13;;;2.83;;
42868;SDS011;28516;47.276;-1.512;2023-02-15T21:34:02;4.43;;;3.22;;
42868;SDS011;28516;47.276;-1.512;2023-02-15T21:35:03;4.47;;;3.35;;
42868;SDS011;28516;47.276;-1.512;2023-02-15T21:36:04;3.97;;;3.28;;
42868;SDS011;28516;47.276;-1.512;2023-02-15T21:37:29;3.25;;;2.95;;
42868;SDS011;28516;47.276;-1.512;2023-02-15T21:38:30;3.85;;;3.47;;
42868;SDS011;28516;47.276;-1.512;2023-02-15T21:39:31;4.13;;;3.40;;
42868;SDS011;28516;47.276;-1.512;2023-02-15T21:40:35;3.67;;;3.13;;
42868;SDS011;28516;47.276;-1.512;2023-02-15T21:41:35;3.58;;;3.28;;
42868;SDS011;28516;47.276;-1.512;2023-02-15T21:42:54;3.13;;;2.88;;
42868;SDS011;28516;47.276;-1.512;2023-02-15T21:44:15;3.20;;;2.85;;
42868;SDS011;28516;47.276;-1.512;2023-02-15T21:45:34;3.45;;;3.15;;
42868;SDS011;28516;47.276;-1.512;2023-02-15T21:46:53;3.88;;;2.85;;
42868;SDS011;28516;47.276;-1.512;2023-02-15T21:48:13;2.90;;;2.63;;
42868;SDS011;28516;47.276;-1.512;2023-02-15T21:49:14;3.33;;;3.03;;
42868;SDS011;28516;47.276;-1.512;2023-02-15T21:50:16;3.17;;;2.88;;
42868;SDS011;28516;47.276;-1.512;2023-02-15T21:51:35;3.30;;;2.70;;
42868;SDS011;28516;47.276;-1.512;2023-02-15T21:52:55;2.72;;;2.50;;
42868;SDS011;28516;47.276;-1.512;2023-02-15T21:53:55;3.25;;;2.95;;
42868;SDS011;28516;47.276;-1.512;2023-02-15T21:54:56;2.80;;;2.50;;
42868;SDS011;28516;47.276;-1.512;2023-02-15T21:55:58;2.72;;;2.45;;
42868;SDS011;28516;47.276;-1.512;2023-02-15T21:56:59;2.97;;;2.50;;
42868;SDS011;28516;47.276;-1.512;2023-02-15T21:58:00;3.30;;;2.65;;
42868;SDS011;28516;47.276;-1.512;2023-02-15T21:59:01;3.28;;;2.85;;
42868;SDS011;28516;47.276;-1.512;2023-02-15T22:00:02;2.33;;;2.13;;
42868;SDS011;28516;47.276;-1.512;2023-02-15T22:01:03;3.38;;;2.83;;
42868;SDS011;28516;47.276;-1.512;2023-02-15T22:02:07;2.67;;;2.47;;
42868;SDS011;28516;47.276;-1.512;2023-02-15T22:03:21;3.08;;;2.78;;
42868;SDS011;28516;47.276;-1.512;2023-02-15T22:04:24;3.13;;;2.50;;
42868;SDS011;28516;47.276;-1.512;2023-02-15T22:05:29;3.53;;;2.72;;
42868;SDS011;28516;47.276;-1.512;2023-02-15T22:06:29;3.55;;;2.40;;
42868;SDS011;28516;47.276;-1.512;2023-02-15T22:07:30;2.97;;;2.58;;
42868;SDS011;28516;47.276;-1.512;2023-02-15T22:08:31;2.90;;;2.60;;
42868;SDS011;28516;47.276;-1.512;2023-02-15T22:09:31;2.58;;;2.38;;
42868;SDS011;28516;47.276;-1.512;2023-02-15T22:10:32;2.97;;;2.70;;
42868;SDS011;28516;47.276;-1.512;2023-02-15T22:11:33;2.97;;;2.40;;
42868;SDS011;28516;47.276;-1.512;2023-02-15T22:12:33;2.53;;;2.28;;
42868;SDS011;28516;47.276;-1.512;2023-02-15T22:13:34;3.25;;;2.60;;
42868;SDS011;28516;47.276;-1.512;2023-02-15T22:14:40;2.83;;;2.60;;
42868;SDS011;28516;47.276;-1.512;2023-02-15T22:15:41;3.45;;;2.50;;
42868;SDS011;28516;47.276;-1.512;2023-02-15T22:16:42;2.20;;;2.00;;
42868;SDS011;28516;47.276;-1.512;2023-02-15T22:17:42;2.58;;;2.17;;
42868;SDS011;28516;47.276;-1.512;2023-02-15T22:18:43;2.90;;;2.60;;
42868;SDS011;28516;47.276;-1.512;2023-02-15T22:19:44;2.45;;;2.20;;
42868;SDS011;28516;47.276;-1.512;2023-02-15T22:20:45;2.70;;;2.50;;
42868;SDS011;28516;47.276;-1.512;2023-02-15T22:21:46;2.60;;;2.28;;
42868;SDS011;28516;47.276;-1.512;2023-02-15T22:22:47;2.78;;;2.58;;
42868;SDS011;28516;47.276;-1.512;2023-02-15T22:23:48;2.85;;;2.58;;
42868;SDS011;28516;47.276;-1.512;2023-02-15T22:24:48;3.38;;;2.60;;
42868;SDS011;28516;47.276;-1.512;2023-02-15T22:25:53;2.50;;;2.30;;
42868;SDS011;28516;47.276;-1.512;2023-02-15T22:26:54;2.50;;;2.30;;
42868;SDS011;28516;47.276;-1.512;2023-02-15T22:27:55;2.70;;;2.50;;
42868;SDS011;28516;47.276;-1.512;2023-02-15T22:28:55;2.97;;;2.30;;
42868;SDS011;28516;47.276;-1.512;2023-02-15T22:29:56;2.42;;;2.22;;
42868;SDS011;28516;47.276;-1.512;2023-02-15T22:30:57;2.83;;;2.40;;
42868;SDS011;28516;47.276;-1.512;2023-02-15T22:31:57;2.35;;;2.15;;
42868;SDS011;28516;47.276;-1.512;2023-02-15T22:32:59;2.65;;;2.15;;
42868;SDS011;28516;47.276;-1.512;2023-02-15T22:33:59;2.30;;;2.10;;